Time;durP1;ratioP1;P1;durP2;ratioP2;P2;SDS_P1;SDS_P2;PMS_P1;PMS_P2;Temp;Humidity;BMP_temperature;BMP_pressure;BME280_temperature;BME280_humidity;BME280_pressure;Samples;Min_cycle;Max_cycle;Signal;HPM_P1;HPM_P2
2022/06/22 00:00:28;;;;;;;22.30;18.05;;;538.50;2406.40;;;;;;5019879;28;20025;-87
2022/06/22 00:02:56;;;;;;;20.45;17.17;;;538.50;2406.40;;;;;;5004731;28;20022;-86
2022/06/22 00:05:29;;;;;;;25.88;18.83;;;538.40;2406.40;;;;;;5007392;28;20022;-88
2022/06/22 00:07:58;;;;;;;19.17;17.13;;;538.20;2406.40;;;;;;5019699;28;20033;-84
2022/06/22 00:10:37;;;;;;;21.65;19.33;;;538.00;2406.40;;;;;;5009298;28;20021;-89
2022/06/22 00:13:13;;;;;;;26.60;18.55;;;537.90;2406.40;;;;;;5003327;28;20041;-87
2022/06/22 00:15:47;;;;;;;24.15;17.60;;;537.90;2406.40;;;;;;5008008;28;20033;-88
2022/06/22 00:18:37;;;;;;;25.70;18.33;;;537.90;2406.40;;;;;;5023258;28;20022;-86
2022/06/22 00:21:26;;;;;;;18.00;16.17;;;537.80;2406.40;;;;;;5024844;28;20025;-84
2022/06/22 00:23:58;;;;;;;18.25;16.00;;;537.90;2406.40;;;;;;4992851;28;20056;-84
2022/06/22 00:26:23;;;;;;;21.35;17.50;;;537.90;2406.40;;;;;;5017952;28;20101;-87
2022/06/22 00:28:52;;;;;;;24.75;17.13;;;538.10;2406.40;;;;;;5008929;28;20108;-86
2022/06/22 00:31:40;;;;;;;18.55;14.13;;;537.90;2406.40;;;;;;4999121;28;20092;-85
2022/06/22 00:34:13;;;;;;;24.83;15.45;;;538.10;2406.40;;;;;;4999691;28;20030;-89
2022/06/22 00:36:57;;;;;;;27.95;17.63;;;538.20;2406.40;;;;;;5001816;28;20547;-85
2022/06/22 00:39:26;;;;;;;17.58;15.85;;;;;;;;;;5002052;28;20025;-89
2022/06/22 00:42:15;;;;;;;21.85;15.40;;;563.60;2432.00;;;;;;5016002;28;20053;-90
2022/06/22 00:44:46;;;;;;;19.30;15.98;;;563.50;2432.00;;;;;;5013118;28;20026;-89
2022/06/22 00:47:23;;;;;;;24.40;15.88;;;;;;;;;;5007746;28;20030;-91
2022/06/22 00:49:50;;;;;;;25.80;17.27;;;;;;;;;;5008224;28;20045;-88
2022/06/22 00:52:34;;;;;;;20.17;16.25;;;563.80;2432.00;;;;;;5010869;28;20079;-83
2022/06/22 00:55:01;;;;;;;22.17;16.13;;;563.40;2099.20;;;;;;5012294;28;21292;-80
2022/06/22 00:57:33;;;;;;;23.45;17.63;;;563.20;2432.00;;;;;;5005160;28;20021;-82
2022/06/22 01:00:03;;;;;;;19.17;17.25;;;538.40;2406.40;;;;;;5022498;28;20033;-85
2022/06/22 01:02:35;;;;;;;18.40;16.45;;;538.30;2406.40;;;;;;5025284;28;20033;-86
2022/06/22 01:05:15;;;;;;;18.83;16.95;;;538.30;2406.40;;;;;;5030931;28;20033;-79
2022/06/22 01:08:00;;;;;;;18.38;16.45;;;538.40;2406.40;;;;;;5019042;28;20057;-91
2022/06/22 01:10:48;;;;;;;27.08;17.95;;;538.40;2406.40;;;;;;5016264;28;20151;-85
2022/06/22 01:13:13;;;;;;;22.60;17.77;;;538.40;2406.40;;;;;;5035270;28;20064;-85
2022/06/22 01:15:59;;;;;;;24.75;19.73;;;563.30;2432.00;;;;;;5017081;28;20084;-87
2022/06/22 01:18:38;;;;;;;21.58;16.83;;;563.20;2432.00;;;;;;5014644;28;20092;-87
2022/06/22 01:21:16;;;;;;;20.13;17.27;;;563.20;2406.40;;;;;;5026094;28;20026;-86
2022/06/22 01:23:59;;;;;;;24.10;16.40;;;563.20;2406.40;;;;;;5008655;28;20022;-85
2022/06/22 01:26:46;;;;;;;27.95;19.02;;;563.20;2304.00;;;;;;5022064;28;20022;-84
2022/06/22 01:29:19;;;;;;;20.85;17.35;;;538.40;2406.40;;;;;;5012137;28;20026;-84
2022/06/22 01:32:02;;;;;;;21.98;15.70;;;538.30;2406.40;;;;;;5004004;28;20108;-85
2022/06/22 01:34:47;;;;;;;21.20;16.63;;;538.50;2022.40;;;;;;5010978;28;20051;-84
2022/06/22 01:37:23;;;;;;;19.77;15.25;;;538.50;2406.40;;;;;;5009316;28;20030;-84
2022/06/22 01:39:50;;;;;;;23.38;17.05;;;538.30;2406.40;;;;;;5006036;28;20037;-86
2022/06/22 01:42:22;;;;;;;26.42;16.40;;;538.30;2406.40;;;;;;5016656;28;20021;-85
2022/06/22 01:44:50;;;;;;;22.88;15.98;;;538.10;2406.40;;;;;;5008696;28;20062;-86
2022/06/22 01:47:27;;;;;;;19.40;16.60;;;538.00;2329.60;;;;;;5007738;28;20029;-87
2022/06/22 01:50:02;;;;;;;17.85;15.70;;;538.00;2406.40;;;;;;5002830;28;20085;-88
2022/06/22 01:52:30;;;;;;;20.13;16.50;;;538.10;2380.80;;;;;;5000827;28;20053;-87
2022/06/22 01:55:03;;;;;;;18.73;16.38;;;538.00;2406.40;;;;;;5006810;28;20030;-88
2022/06/22 01:57:37;;;;;;;22.50;18.10;;;538.00;2406.40;;;;;;4999952;28;20026;-89
2022/06/22 02:00:12;;;;;;;28.10;22.98;;;537.90;2406.40;;;;;;5007461;28;20101;-86
2022/06/22 02:03:10;;;;;;;29.48;18.65;;;537.90;2406.40;;;;;;5010754;28;20036;-88
2022/06/22 02:05:48;;;;;;;24.15;17.20;;;538.10;2406.40;;;;;;5010513;28;20034;-87
2022/06/22 02:08:28;;;;;;;19.73;16.25;;;538.20;2406.40;;;;;;5004556;28;20026;-88
2022/06/22 02:11:15;;;;;;;23.08;19.08;;;538.10;2201.60;;;;;;5008605;28;20050;-90
2022/06/22 02:13:53;;;;;;;25.42;21.38;;;538.30;2048.00;;;;;;5019895;28;20038;-89
2022/06/22 02:16:41;;;;;;;24.80;20.75;;;538.40;2406.40;;;;;;5007496;28;20022;-87
2022/06/22 02:19:09;;;;;;;20.95;17.15;;;;;;;;;;5005951;28;20034;-87
2022/06/22 02:21:46;;;;;;;20.50;16.60;;;;;;;;;;5004927;28;20358;-87
2022/06/22 02:24:12;;;;;;;19.58;15.98;;;;;;;;;;5002398;28;20022;-87
2022/06/22 02:26:50;;;;;;;20.80;17.40;;;;;;;;;;5004398;28;20474;-89
2022/06/22 02:29:17;;;;;;;23.10;16.20;;;;;;;;;;5013119;28;20029;-88
2022/06/22 02:31:43;;;;;;;24.98;15.40;;;563.20;2432.00;;;;;;5007019;28;20022;-87
2022/06/22 02:34:10;;;;;;;24.90;17.10;;;538.50;2406.40;;;;;;5009768;28;20030;-86
2022/06/22 02:36:41;;;;;;;17.38;15.57;;;563.30;2432.00;;;;;;5007302;28;20120;-86
2022/06/22 02:39:11;;;;;;;21.70;16.42;;;538.40;2406.40;;;;;;5001226;28;20485;-85
2022/06/22 02:44:35;;;;;;;23.02;15.82;;;563.20;2355.20;;;;;;5005351;28;20495;-87
2022/06/22 02:47:25;;;;;;;18.55;16.52;;;563.20;2432.00;;;;;;4995743;28;20018;-86
2022/06/22 02:50:05;;;;;;;19.60;13.65;;;563.20;2432.00;;;;;;5002048;28;20053;-89
2022/06/22 02:52:49;;;;;;;19.75;17.58;;;538.40;2406.40;;;;;;5013657;28;20026;-87
2022/06/22 02:55:24;;;;;;;27.02;16.92;;;563.40;2432.00;;;;;;5014350;28;20472;-88
2022/06/22 02:57:53;;;;;;;26.88;17.20;;;563.50;2432.00;;;;;;5019309;28;20033;-89
2022/06/22 03:00:29;;;;;;;21.98;15.77;;;563.30;2432.00;;;;;;5010966;28;20018;-88
2022/06/22 03:03:05;;;;;;;18.63;16.65;;;;;;;;;;5018150;28;20033;-86
2022/06/22 03:05:34;;;;;;;23.48;15.75;;;538.00;2406.40;;;;;;5016831;28;20084;-88
2022/06/22 03:08:01;;;;;;;29.23;16.58;;;537.70;2406.40;;;;;;5009752;28;20026;-86
2022/06/22 03:10:35;;;;;;;22.70;15.80;;;512.90;2227.20;;;;;;5008462;28;20025;-86
2022/06/22 03:13:00;;;;;;;;;;;512.70;2304.00;;;;;;5012915;28;20133;-87
2022/06/22 03:15:32;;;;;;;22.40;16.42;;;512.60;2380.80;;;;;;5014085;28;19906;-88
2022/06/22 03:17:59;;;;;;;17.90;13.85;;;512.60;2380.80;;;;;;5016851;28;20022;-86
2022/06/22 03:20:29;;;;;;;18.48;12.55;;;512.50;2304.00;;;;;;5012142;28;20029;-86
2022/06/22 03:23:13;;;;;;;19.33;13.52;;;512.60;2380.80;;;;;;5012264;28;20450;-86
2022/06/22 03:25:51;;;;;;;18.50;12.85;;;512.80;2380.80;;;;;;5012167;28;20080;-86
2022/06/22 03:28:23;;;;;;;16.85;11.35;;;537.70;2406.40;;;;;;5012381;28;20053;-90
2022/06/22 03:30:53;;;;;;;21.77;12.00;;;537.70;2406.40;;;;;;5005433;28;20026;-87
2022/06/22 03:33:26;;;;;;;19.77;12.75;;;537.70;2406.40;;;;;;5011967;28;20042;-87
2022/06/22 03:35:58;;;;;;;22.52;12.70;;;537.70;2406.40;;;;;;5006287;28;20062;-85
2022/06/22 03:38:36;;;;;;;18.45;12.60;;;537.70;2406.40;;;;;;4992248;28;20470;-82
2022/06/22 03:41:17;;;;;;;17.17;12.20;;;537.80;2406.40;;;;;;4996109;28;20021;-88
2022/06/22 03:44:12;;;;;;;29.15;18.38;;;537.80;2406.40;;;;;;5013274;28;20029;-88
2022/06/22 03:46:55;;;;;;;23.42;15.57;;;537.90;2406.40;;;;;;4975139;28;20113;-91
2022/06/22 03:49:32;;;;;;;;;;;538.10;2406.40;;;;;;4998529;28;20054;-89
2022/06/22 03:52:03;;;;;;;18.20;10.90;;;;;;;;;;5012172;28;19960;-87
2022/06/22 03:54:34;;;;;;;18.90;11.15;;;;;;;;;;5011831;28;20037;-88
2022/06/22 03:57:03;;;;;;;20.90;10.82;;;;;;;;;;5012037;28;20109;-88
2022/06/22 03:59:30;;;;;;;24.70;12.63;;;;;;;;;;4996049;28;20061;-87
2022/06/22 04:01:57;;;;;;;20.83;11.38;;;;;;;;;;4999783;28;20030;-87
2022/06/22 04:04:24;;;;;;;16.17;9.05;;;;;;;;;;5009227;28;20995;-84
2022/06/22 04:06:52;;;;;;;20.23;10.10;;;;;;;;;;4994424;28;20023;-84
2022/06/22 04:09:19;;;;;;;12.52;9.63;;;;;;;;;;4996097;28;20033;-86
2022/06/22 04:11:48;;;;;;;20.65;9.98;;;;;;;;;;4997845;28;20077;-86
2022/06/22 04:14:14;;;;;;;17.85;9.80;;;;;;;;;;5007819;28;20038;-85
2022/06/22 04:16:43;;;;;;;13.40;8.32;;;;;;;;;;5006918;28;20026;-86
2022/06/22 04:19:22;;;;;;;24.02;13.07;;;;;;;;;;5005398;28;20041;-88
2022/06/22 04:21:51;;;;;;;17.88;10.48;;;;;;;;;;5012633;28;20034;-86
2022/06/22 04:24:17;;;;;;;19.42;11.27;;;;;;;;;;5012099;28;20025;-85
2022/06/22 04:26:49;;;;;;;15.80;10.27;;;;;;;;;;5004751;28;20025;-88
2022/06/22 04:29:21;;;;;;;15.18;8.63;;;;;;;;;;5000873;28;20168;-84
2022/06/22 04:32:01;;;;;;;16.15;10.50;;;;;;;;;;5009039;28;20033;-82
2022/06/22 04:34:32;;;;;;;20.65;10.48;;;;;;;;;;5001380;28;20042;-83
2022/06/22 04:36:58;;;;;;;22.08;11.02;;;;;;;;;;4997636;28;20023;-86
2022/06/22 04:39:34;;;;;;;17.60;11.77;;;;;;;;;;5005280;28;20646;-83
2022/06/22 04:42:00;;;;;;;19.50;11.15;;;;;;;;;;5006793;28;20508;-83
2022/06/22 04:44:32;;;;;;;20.85;15.85;;;;;;;;;;4996337;28;20018;-82
2022/06/22 04:47:06;;;;;;;37.00;16.45;;;;;;;;;;5010851;28;20482;-83
2022/06/22 04:49:35;;;;;;;23.67;14.60;;;;;;;;;;5002024;28;20042;-83
2022/06/22 04:52:09;;;;;;;20.98;15.40;;;;;;;;;;5008508;28;20405;-81
2022/06/22 04:54:36;;;;;;;22.48;13.35;;;;;;;;;;5001500;28;20441;-88
2022/06/22 04:57:04;;;;;;;20.00;14.18;;;;;;;;;;5012276;28;20025;-84
2022/06/22 04:59:31;;;;;;;25.40;18.08;;;;;;;;;;5006288;28;20018;-84
2022/06/22 05:02:05;;;;;;;22.33;15.90;;;;;;;;;;4995228;28;20151;-83
2022/06/22 05:04:35;;;;;;;20.70;11.65;;;;;;;;;;5015534;28;20018;-83
2022/06/22 05:07:01;;;;;;;33.75;21.23;;;;;;;;;;5013459;28;20026;-82
2022/06/22 05:09:36;;;;;;;23.08;17.65;;;;;;;;;;5000726;28;20457;-84
2022/06/22 05:12:03;;;;;;;22.02;14.80;;;;;;;;;;5014005;28;20076;-82
2022/06/22 05:14:30;;;;;;;21.48;15.57;;;;;;;;;;5008057;28;20037;-81
2022/06/22 05:16:59;;;;;;;19.80;15.18;;;;;;;;;;4994201;28;20026;-82
2022/06/22 05:19:32;;;;;;;21.25;13.75;;;;;;;;;;5007899;28;20493;-82
2022/06/22 05:21:58;;;;;;;22.75;16.10;;;;;;;;;;5013654;28;20416;-82
2022/06/22 05:24:31;;;;;;;24.38;16.80;;;;;;;;;;5009885;28;20050;-82
2022/06/22 05:26:58;;;;;;;25.80;14.30;;;;;;;;;;4993815;28;20022;-83
2022/06/22 05:29:24;;;;;;;24.42;14.18;;;;;;;;;;5013514;28;20025;-84
2022/06/22 05:31:53;;;;;;;22.05;13.98;;;;;;;;;;5013822;28;20041;-84
2022/06/22 05:34:26;;;;;;;28.70;11.77;;;;;;;;;;5010506;28;20042;-82
2022/06/22 05:37:00;;;;;;;26.90;14.73;;;;;;;;;;5007805;28;20029;-82
2022/06/22 05:39:26;;;;;;;14.90;8.50;;;;;;;;;;4996587;28;20026;-82
2022/06/22 05:41:53;;;;;;;16.00;7.97;;;;;;;;;;5001253;28;20068;-81
2022/06/22 05:44:21;;;;;;;14.75;8.18;;;;;;;;;;5001945;28;20026;-83
2022/06/22 05:46:54;;;;;;;17.42;9.77;;;;;;;;;;5007409;28;20100;-82
2022/06/22 05:49:21;;;;;;;23.85;11.18;;;;;;;;;;5006956;28;20064;-82
2022/06/22 05:51:57;;;;;;;15.98;8.82;;;;;;;;;;5009617;28;20105;-81
2022/06/22 05:54:29;;;;;;;19.48;10.52;;;;;;;;;;5004394;28;20034;-81
2022/06/22 05:57:03;;;;;;;11.38;7.28;;;;;;;;;;5001687;28;20057;-81
2022/06/22 05:59:48;;;;;;;11.00;8.50;;;;;;;;;;5013026;28;20109;-81
2022/06/22 06:02:19;;;;;;;14.45;9.02;;;;;;;;;;5011082;28;20519;-81
2022/06/22 06:05:03;;;;;;;18.65;8.35;;;;;;;;;;4998573;28;20077;-82
2022/06/22 06:07:33;;;;;;;9.40;6.72;;;;;;;;;;5011609;28;20025;-84
2022/06/22 06:10:00;;;;;;;20.67;10.70;;;;;;;;;;5013040;28;20037;-82
2022/06/22 06:12:35;;;;;;;20.98;12.32;;;;;;;;;;5012441;28;20045;-83
2022/06/22 06:15:04;;;;;;;13.43;9.30;;;;;;;;;;5012992;28;20441;-82
2022/06/22 06:17:33;;;;;;;18.88;13.43;;;;;;;;;;5010662;28;20031;-82
2022/06/22 06:19:59;;;;;;;17.80;8.25;;;;;;;;;;5004685;28;20022;-81
2022/06/22 06:22:28;;;;;;;28.23;10.90;;;;;;;;;;5009160;28;20028;-81
2022/06/22 06:28:05;;;;;;;19.80;8.63;;;;;;;;;;5013237;28;20033;-81
2022/06/22 06:30:38;;;;;;;12.70;6.50;;;;;;;;;;4997708;28;20030;-86
2022/06/22 06:33:07;;;;;;;23.50;19.65;;;;;;;;;;4999395;28;20037;-84
2022/06/22 06:35:40;;;;;;;10.05;5.88;;;;;;;;;;5002971;28;20022;-84
2022/06/22 06:38:09;;;;;;;14.70;9.38;;;;;;;;;;5009428;28;20017;-86
2022/06/22 06:40:49;;;;;;;12.48;7.90;;;;;;;;;;4999508;28;20034;-82
2022/06/22 06:43:44;;;;;;;17.02;13.38;;;640.80;2432.00;;;;;;5009433;28;20022;-88
2022/06/22 06:46:30;;;;;;;18.65;7.57;;;640.50;2432.00;;;;;;5009488;28;20057;-84
2022/06/22 06:48:56;;;;;;;22.88;15.13;;;640.40;2432.00;;;;;;5004073;28;20053;-85
2022/06/22 06:51:23;;;;;;;14.18;8.27;;;640.50;2432.00;;;;;;5001392;28;20057;-88
2022/06/22 06:53:56;;;;;;;27.50;20.17;;;640.60;2432.00;;;;;;5004275;28;20044;-87
2022/06/22 06:56:38;;;;;;;42.43;25.53;;;665.60;2432.00;;;;;;4999628;28;20124;-84
2022/06/22 06:59:10;;;;;;;37.90;31.05;;;640.80;2432.00;;;;;;5006029;28;20264;-87
2022/06/22 07:01:39;;;;;;;21.48;11.73;;;640.60;2432.00;;;;;;5011996;28;20053;-83
2022/06/22 07:04:15;;;;;;;17.50;11.25;;;;;;;;;;5011907;28;20457;-83
2022/06/22 07:06:41;;;;;;;17.30;10.20;;;;;;;;;;5010404;28;20041;-90
2022/06/22 07:09:10;;;;;;;8.10;5.15;;;;;;;;;;5007659;28;20074;-83
2022/06/22 07:11:41;;;;;;;10.18;5.45;;;;;;;;;;5000759;28;20062;-83
2022/06/22 07:14:16;;;;;;;8.20;5.32;;;;;;;;;;5001049;28;20374;-85
2022/06/22 07:16:42;;;;;;;11.68;4.70;;;;;;;;;;5010790;28;20034;-86
2022/06/22 07:19:14;;;;;;;8.75;5.93;;;;;;;;;;5008507;28;20026;-86
2022/06/22 07:21:40;;;;;;;33.10;25.05;;;;;;;;;;4993999;28;20493;-85
2022/06/22 07:24:19;;;;;;;21.23;12.65;;;;;;;;;;4999854;28;20030;-86
2022/06/22 07:26:59;;;;;;;13.95;11.68;;;;;;;;;;5002231;28;20034;-86
2022/06/22 07:29:25;;;;;;;14.73;8.93;;;;;;;;;;5003990;28;20018;-84
2022/06/22 07:31:57;;;;;;;8.30;4.53;;;;;;;;;;5011510;28;20026;-86
2022/06/22 07:34:38;;;;;;;23.10;13.98;;;;;;;;;;5008793;28;20034;-86
2022/06/22 07:37:11;;;;;;;16.25;8.48;;;;;;;;;;4999662;28;20556;-87
2022/06/22 07:39:41;;;;;;;24.42;13.38;;;;;;;;;;5008514;28;20018;-86
2022/06/22 07:42:08;;;;;;;19.83;10.30;;;;;;;;;;5001390;28;20037;-85
2022/06/22 07:44:34;;;;;;;17.23;6.18;;;;;;;;;;5006767;28;20026;-85
2022/06/22 07:47:01;;;;;;;11.02;4.88;;;;;;;;;;4999399;28;20104;-87
2022/06/22 07:49:32;;;;;;;7.20;4.45;;;;;;;;;;5010607;28;20054;-86
2022/06/22 07:51:59;;;;;;;6.75;4.18;;;;;;;;;;5006788;28;20036;-85
2022/06/22 07:54:41;;;;;;;7.13;4.55;;;;;;;;;;5029021;28;20036;-88
2022/06/22 07:57:26;;;;;;;12.07;7.45;;;;;;;;;;5023438;28;20026;-88
2022/06/22 08:00:00;;;;;;;15.98;12.00;;;;;;;;;;5012337;28;20117;-86
2022/06/22 08:02:45;;;;;;;12.48;4.35;;;666.00;2432.00;;;;;;5009434;28;20018;-85
2022/06/22 08:05:15;;;;;;;9.82;6.32;;;665.90;2432.00;;;;;;5030358;28;20484;-83
2022/06/22 08:07:50;;;;;;;9.18;5.22;;;;;;;;;;5012297;28;20046;-83
2022/06/22 08:10:19;;;;;;;15.95;7.72;;;;;;;;;;5024839;28;20099;-84
2022/06/22 08:12:45;;;;;;;9.10;3.83;;;;;;;;;;5012744;28;20018;-85
2022/06/22 08:15:15;;;;;;;15.30;7.13;;;;;;;;;;5005879;28;20029;-85
2022/06/22 08:17:43;;;;;;;11.82;4.32;;;;;;;;;;5015177;28;20022;-84
2022/06/22 08:20:11;;;;;;;9.88;4.28;;;;;;;;;;5035430;28;20022;-85
2022/06/22 08:22:37;;;;;;;15.93;7.53;;;;;;;;;;5018177;28;20047;-85
2022/06/22 08:25:04;;;;;;;11.93;5.10;;;666.30;2278.40;;;;;;5017278;28;20029;-83
2022/06/22 08:27:30;;;;;;;10.43;5.63;;;666.00;2355.20;;;;;;5017705;28;20417;-84
2022/06/22 08:29:57;;;;;;;12.77;6.20;;;;;;;;;;5006158;28;20021;-82
2022/06/22 08:32:23;;;;;;;10.40;9.13;;;;;;;;;;5035687;28;20021;-85
2022/06/22 08:34:52;;;;;;;12.27;7.72;;;;;;;;;;5005298;28;20040;-83
2022/06/22 08:37:22;;;;;;;20.60;8.82;;;;;;;;;;5010143;28;20056;-83
2022/06/22 08:39:55;;;;;;;8.57;5.55;;;;;;;;;;5035119;28;20125;-87
2022/06/22 08:42:24;;;;;;;7.88;3.47;;;;;;;;;;5028117;28;20022;-84
2022/06/22 08:44:56;;;;;;;9.38;3.45;;;640.60;2124.80;;;;;;5011211;28;20040;-85
2022/06/22 08:47:40;;;;;;;7.45;3.38;;;640.10;2329.60;;;;;;5003163;28;20485;-87
2022/06/22 08:50:27;;;;;;;10.98;3.20;;;640.10;2406.40;;;;;;5016143;28;20099;-86
2022/06/22 08:53:30;;;;;;;7.68;3.17;;;640.20;2252.80;;;;;;5012482;28;20500;-87
2022/06/22 08:56:02;;;;;;;12.73;3.72;;;640.30;2252.80;;;;;;5019267;28;20038;-84
2022/06/22 08:58:57;;;;;;;8.40;2.85;;;640.40;2073.60;;;;;;5016314;28;20122;-86
2022/06/22 09:01:40;;;;;;;5.65;3.80;;;640.20;2124.80;;;;;;5010426;28;20431;-86
2022/06/22 09:04:21;;;;;;;9.48;5.28;;;640.20;2073.60;;;;;;5013835;28;20032;-85
2022/06/22 09:07:11;;;;;;;9.00;3.13;;;640.60;2252.80;;;;;;5023583;28;20033;-85
2022/06/22 09:09:54;;;;;;;6.88;3.63;;;;;;;;;;5005982;28;20129;-89
2022/06/22 09:12:32;;;;;;;13.20;4.18;;;665.70;2304.00;;;;;;5016126;28;20071;-86
2022/06/22 09:15:09;;;;;;;8.30;4.10;;;665.60;2252.80;;;;;;5010906;28;20108;-81
2022/06/22 09:17:46;;;;;;;12.50;4.05;;;640.80;2304.00;;;;;;5010159;28;20030;-86
2022/06/22 09:20:28;;;;;;;6.93;4.53;;;640.70;2380.80;;;;;;5015822;28;20026;-80
2022/06/22 09:23:17;;;;;;;9.18;3.70;;;665.70;2406.40;;;;;;5013314;28;20025;-80
2022/06/22 09:25:50;;;;;;;8.00;4.47;;;640.80;2124.80;;;;;;5005586;28;20024;-83
2022/06/22 09:28:38;;;;;;;14.10;5.25;;;665.60;2176.00;;;;;;5015385;28;20136;-81
2022/06/22 09:31:22;;;;;;;9.05;5.63;;;;;;;;;;5001381;28;20029;-78
2022/06/22 09:34:11;;;;;;;9.80;5.00;;;;;;;;;;5002027;28;20037;-81
2022/06/22 09:37:04;;;;;;;11.70;4.28;;;;;;;;;;5012865;28;20492;-79
2022/06/22 09:39:49;;;;;;;10.98;4.78;;;;;;;;;;4980601;28;20038;-83
2022/06/22 09:42:31;;;;;;;10.02;4.15;;;;;;;;;;5004079;28;20104;-80
2022/06/22 09:45:16;;;;;;;11.55;3.97;;;;;;;;;;5012448;28;20024;-83
2022/06/22 09:48:02;;;;;;;7.68;4.60;;;;;;;;;;4996689;28;20025;-79
2022/06/22 09:50:34;;;;;;;5.53;3.33;;;;;;;;;;5005834;28;20037;-81
2022/06/22 09:53:26;;;;;;;8.27;5.13;;;;;;;;;;5014351;28;20040;-78
2022/06/22 09:58:58;;;;;;;7.07;4.13;;;;;;;;;;5023273;28;20508;-79
2022/06/22 10:01:27;;;;;;;8.32;3.20;;;;;;;;;;5032064;28;20129;-81
2022/06/22 10:04:02;;;;;;;8.27;3.28;;;;;;;;;;5021389;28;20026;-80
2022/06/22 10:06:35;;;;;;;11.65;2.80;;;;;;;;;;5012060;28;20021;-81
2022/06/22 10:09:07;;;;;;;8.50;3.13;;;;;;;;;;5011271;28;20246;-79
2022/06/22 10:11:43;;;;;;;7.80;3.72;;;;;;;;;;5012490;28;20518;-80
2022/06/22 10:14:16;;;;;;;8.50;4.15;;;;;;;;;;5027703;28;20029;-81
2022/06/22 10:16:42;;;;;;;6.70;3.30;;;;;;;;;;5022427;28;20040;-81
2022/06/22 10:19:17;;;;;;;8.50;3.58;;;;;;;;;;5006728;28;20022;-81
2022/06/22 10:22:01;;;;;;;10.48;3.67;;;;;;;;;;5030929;28;20026;-82
2022/06/22 10:24:34;;;;;;;8.02;3.78;;;;;;;;;;5032584;28;20035;-80
2022/06/22 10:27:19;;;;;;;9.15;4.43;;;;;;;;;;5018528;28;20048;-80
2022/06/22 10:30:04;;;;;;;18.30;10.82;;;;;;;;;;5013456;28;20079;-80
2022/06/22 10:32:46;;;;;;;21.33;14.25;;;;;;;;;;4999522;28;20021;-80
2022/06/22 10:35:15;;;;;;;31.63;22.40;;;;;;;;;;5001621;28;20048;-80
2022/06/22 10:37:41;;;;;;;16.05;11.60;;;;;;;;;;5031861;28;20029;-79
2022/06/22 10:46:06;;;;;;;12.45;7.00;;;;;;;;;;5014126;28;20053;-80
2022/06/22 10:48:42;;;;;;;17.65;14.98;;;;;;;;;;5006028;28;20049;-80
2022/06/22 10:51:19;;;;;;;20.85;17.42;;;;;;;;;;5014222;28;20021;-79
2022/06/22 10:54:21;;;;;;;22.42;14.85;;;;;;;;;;5019822;28;20038;-79
2022/06/22 10:57:06;;;;;;;12.75;5.57;;;;;;;;;;4913461;29;20059;-79
2022/06/22 10:59:35;;;;;;;24.15;15.65;;;;;;;;;;5022658;28;20128;-80
2022/06/22 11:02:01;;;;;;;41.25;36.45;;;;;;;;;;5014567;28;20101;-79
2022/06/22 11:04:46;;;;;;;23.55;17.52;;;;;;;;;;5014248;28;20480;-80
2022/06/22 11:07:28;;;;;;;12.75;5.88;;;;;;;;;;5003559;28;20037;-78
2022/06/22 11:10:04;;;;;;;12.40;6.18;;;;;;;;;;4994561;28;20113;-79
2022/06/22 11:12:39;;;;;;;6.32;4.18;;;;;;;;;;5014177;28;20479;-80
2022/06/22 11:15:14;;;;;;;8.70;4.28;;;;;;;;;;5008467;28;20104;-81
2022/06/22 11:17:53;;;;;;;6.88;4.32;;;;;;;;;;5007248;28;20026;-81
2022/06/22 11:20:37;;;;;;;9.38;4.47;;;;;;;;;;4998321;28;20013;-81
2022/06/22 11:23:16;;;;;;;11.80;4.25;;;;;;;;;;5014084;28;20052;-80
2022/06/22 11:31:18;;;;;;;12.55;4.18;;;;;;;;;;5031584;28;20399;-78
2022/06/22 11:33:48;;;;;;;8.13;4.18;;;;;;;;;;4999974;28;20038;-79
2022/06/22 11:36:18;;;;;;;11.18;3.92;;;;;;;;;;5013677;28;20548;-81
2022/06/22 11:38:51;;;;;;;16.90;5.57;;;;;;;;;;5013777;28;20017;-81
2022/06/22 11:41:35;;;;;;;8.82;4.25;;;;;;;;;;5028167;28;20080;-81
2022/06/22 11:44:13;;;;;;;17.73;8.57;;;;;;;;;;5031741;28;20025;-81
2022/06/22 11:46:47;;;;;;;10.05;5.50;;;;;;;;;;5014072;28;20025;-81
2022/06/22 11:49:26;;;;;;;11.45;4.75;;;;;;;;;;5009285;28;20539;-78
2022/06/22 11:51:58;;;;;;;8.98;5.30;;;;;;;;;;4993644;28;20026;-79
2022/06/22 11:54:24;;;;;;;7.70;4.90;;;;;;;;;;4999423;28;20041;-80
2022/06/22 11:57:01;;;;;;;8.18;4.22;;;;;;;;;;4998947;28;20396;-80
2022/06/22 11:59:45;;;;;;;17.05;7.75;;;;;;;;;;5017075;28;20087;-79
2022/06/22 12:02:35;;;;;;;14.07;6.53;;;;;;;;;;5011708;28;20026;-79
2022/06/22 12:05:20;;;;;;;23.17;16.65;;;;;;;;;;5011093;28;20538;-81
2022/06/22 12:08:05;;;;;;;21.67;14.65;;;;;;;;;;4993994;28;20029;-79
2022/06/22 12:10:48;;;;;;;13.02;8.18;;;;;;;;;;5011962;28;20030;-80
2022/06/22 12:13:33;;;;;;;17.40;8.73;;;;;;;;;;5012034;28;20033;-78
2022/06/22 12:16:12;;;;;;;13.20;10.27;;;;;;;;;;5024985;28;20026;-78
2022/06/22 12:18:51;;;;;;;11.20;8.25;;;;;;;;;;5015886;28;20068;-80
2022/06/22 12:21:27;;;;;;;14.40;6.85;;;;;;;;;;5007405;28;20104;-82
2022/06/22 12:24:07;;;;;;;17.85;8.63;;;;;;;;;;5012586;28;20017;-88
2022/06/22 12:26:36;;;;;;;9.00;6.65;;;;;;;;;;5030104;28;20309;-89
2022/06/22 12:29:38;;;;;;;12.20;6.93;;;;;;;;;;5034552;28;20067;-87
2022/06/22 12:32:14;;;;;;;17.13;7.22;;;;;;;;;;4930655;29;20091;-88
2022/06/22 12:35:00;;;;;;;13.32;7.43;;;;;;;;;;5005576;28;20042;-89
2022/06/22 12:37:31;;;;;;;11.18;7.75;;;;;;;;;;5047261;28;20077;-90
2022/06/22 12:40:19;;;;;;;11.65;6.88;;;;;;;;;;5032990;28;20430;-88
2022/06/22 12:43:00;;;;;;;10.52;7.90;;;;;;;;;;5013280;28;20029;-89
2022/06/22 12:45:32;;;;;;;22.67;18.30;;;;;;;;;;5034885;28;20514;-90
2022/06/22 12:47:58;;;;;;;21.40;14.60;;;;;;;;;;5020302;28;20052;-88
2022/06/22 12:50:27;;;;;;;31.38;21.48;;;;;;;;;;5036036;28;20034;-88
2022/06/22 12:52:59;;;;;;;26.17;23.00;;;;;;;;;;5007829;28;20024;-92
2022/06/22 12:55:34;;;;;;;9.52;8.00;;;;;;;;;;5020525;28;21031;-83
2022/06/22 12:58:04;;;;;;;19.58;17.50;;;;;;;;;;5018360;28;20045;-84
2022/06/22 13:00:30;;;;;;;10.57;8.68;;;;;;;;;;5035682;28;20025;-88
2022/06/22 13:02:58;;;;;;;23.38;20.95;;;;;;;;;;5034168;28;20022;-88
2022/06/22 13:05:29;;;;;;;12.02;8.43;;;;;;;;;;5019877;28;20116;-87
2022/06/22 13:08:07;;;;;;;11.98;8.13;;;;;;;;;;5017893;28;20017;-89
2022/06/22 13:10:40;;;;;;;15.00;8.68;;;;;;;;;;5019540;28;20445;-87
2022/06/22 13:13:21;;;;;;;24.95;12.25;;;;;;;;;;5019498;28;20026;-89
2022/06/22 13:15:59;;;;;;;23.38;13.98;;;;;;;;;;5018909;28;20753;-88
2022/06/22 13:18:25;;;;;;;22.17;14.68;;;;;;;;;;5017795;28;20041;-88
2022/06/22 13:21:00;;;;;;;11.98;8.43;;;;;;;;;;5023228;28;20052;-89
2022/06/22 13:23:33;;;;;;;21.30;7.53;;;;;;;;;;5016866;28;20017;-84
2022/06/22 13:26:04;;;;;;;14.13;9.02;;;;;;;;;;5017452;28;20380;-86
2022/06/22 13:28:30;;;;;;;15.48;6.88;;;;;;;;;;5012506;28;20022;-82
2022/06/22 13:30:58;;;;;;;11.52;6.60;;;;;;;;;;5004979;28;20428;-84
2022/06/22 13:33:43;;;;;;;13.02;7.97;;;;;;;;;;5026668;28;20037;-80
2022/06/22 13:36:32;;;;;;;11.25;6.63;;;;;;;;;;5016241;28;20477;-79
2022/06/22 13:38:58;;;;;;;9.73;6.30;;;;;;;;;;5003827;28;20026;-80
2022/06/22 13:41:31;;;;;;;10.85;6.72;;;;;;;;;;5033730;28;20033;-80
2022/06/22 13:44:07;;;;;;;12.68;7.53;;;;;;;;;;5015899;28;20025;-79
2022/06/22 13:46:47;;;;;;;11.75;6.45;;;;;;;;;;5015394;28;20025;-80
2022/06/22 13:49:25;;;;;;;14.27;6.80;;;;;;;;;;5015336;28;20049;-80
2022/06/22 13:52:10;;;;;;;9.88;7.30;;;;;;;;;;5015662;28;20443;-81
2022/06/22 13:55:11;;;;;;;14.90;7.28;;;973.30;588.80;;;;;;5016028;28;20079;-81
2022/06/22 13:57:48;;;;;;;21.38;8.45;;;973.70;588.80;;;;;;4937030;29;20027;-81
2022/06/22 14:00:40;;;;;;;14.45;7.28;;;973.00;614.40;;;;;;4991563;28;20442;-81
2022/06/22 14:03:15;;;;;;;12.57;7.00;;;973.60;537.60;;;;;;5010184;28;20498;-79
2022/06/22 14:05:53;;;;;;;9.02;6.07;;;998.90;537.60;;;;;;5015245;28;20476;-79
2022/06/22 14:08:27;;;;;;;14.13;6.97;;;1024.50;486.40;;;;;;5012190;28;20428;-80
2022/06/22 14:11:16;;;;;;;12.60;6.15;;;1049.70;486.40;;;;;;5028602;28;20028;-81
2022/06/22 14:13:49;;;;;;;12.32;7.68;;;;;;;;;;5015113;28;20044;-81
2022/06/22 14:16:21;;;;;;;9.43;6.45;;;1075.40;409.60;;;;;;5015339;28;20092;-81
2022/06/22 14:19:14;;;;;;;14.00;6.22;;;1075.70;409.60;;;;;;5015380;28;20079;-82
2022/06/22 14:21:42;;;;;;;;;;;1100.90;384.00;;;;;;5011797;28;20112;-81
2022/06/22 14:24:11;;;;;;;9.43;5.97;;;;;;;;;;5012456;28;20298;-81
2022/06/22 14:27:02;;;;;;;11.10;6.22;;;1050.30;409.60;;;;;;5006222;28;20072;-81
2022/06/22 14:29:39;;;;;;;10.00;5.65;;;1024.90;409.60;;;;;;5007379;28;20572;-81
2022/06/22 14:32:26;;;;;;;10.30;6.35;;;947.80;537.60;;;;;;5008502;28;20060;-81